sensor_id;sensor_type;location;lat;lon;timestamp;P1;durP1;ratioP1;P2;durP2;ratioP2
16029;SDS011;34770;49.272;11.070;2023-05-10T00:01:46;5.07;;;4.60;;
16029;SDS011;34770;49.272;11.070;2023-05-10T00:04:12;5.50;;;4.43;;
16029;SDS011;34770;49.272;11.070;2023-05-10T00:06:37;4.55;;;4.13;;
16029;SDS011;34770;49.272;11.070;2023-05-10T00:09:03;5.05;;;4.40;;
16029;SDS011;34770;49.272;11.070;2023-05-10T00:11:28;5.15;;;4.65;;
16029;SDS011;34770;49.272;11.070;2023-05-10T00:13:54;5.75;;;5.18;;
16029;SDS011;34770;49.272;11.070;2023-05-10T00:16:20;5.63;;;5.03;;
16029;SDS011;34770;49.272;11.070;2023-05-10T00:18:46;5.88;;;5.38;;
16029;SDS011;34770;49.272;11.070;2023-05-10T00:21:11;7.97;;;5.63;;
16029;SDS011;34770;49.272;11.070;2023-05-10T00:23:36;7.03;;;6.00;;
16029;SDS011;34770;49.272;11.070;2023-05-10T00:26:02;7.00;;;6.30;;
16029;SDS011;34770;49.272;11.070;2023-05-10T00:28:28;6.55;;;5.90;;
16029;SDS011;34770;49.272;11.070;2023-05-10T00:30:54;6.65;;;6.03;;
16029;SDS011;34770;49.272;11.070;2023-05-10T00:33:19;8.07;;;6.60;;
16029;SDS011;34770;49.272;11.070;2023-05-10T00:35:45;6.93;;;5.85;;
16029;SDS011;34770;49.272;11.070;2023-05-10T00:38:10;7.13;;;6.35;;
16029;SDS011;34770;49.272;11.070;2023-05-10T00:40:36;8.25;;;6.05;;
16029;SDS011;34770;49.272;11.070;2023-05-10T00:43:02;7.45;;;6.60;;
16029;SDS011;34770;49.272;11.070;2023-05-10T00:45:28;8.73;;;6.63;;
16029;SDS011;34770;49.272;11.070;2023-05-10T00:47:55;8.82;;;6.50;;
16029;SDS011;34770;49.272;11.070;2023-05-10T00:50:24;7.45;;;6.75;;
16029;SDS011;34770;49.272;11.070;2023-05-10T00:52:49;7.90;;;6.90;;
16029;SDS011;34770;49.272;11.070;2023-05-10T00:55:15;6.68;;;6.05;;
16029;SDS011;34770;49.272;11.070;2023-05-10T00:57:41;7.57;;;6.88;;
16029;SDS011;34770;49.272;11.070;2023-05-10T01:00:07;12.50;;;7.38;;
16029;SDS011;34770;49.272;11.070;2023-05-10T01:02:33;8.15;;;7.32;;
16029;SDS011;34770;49.272;11.070;2023-05-10T01:05:00;9.32;;;7.72;;
16029;SDS011;34770;49.272;11.070;2023-05-10T01:07:28;7.43;;;6.72;;
16029;SDS011;34770;49.272;11.070;2023-05-10T01:09:54;8.20;;;7.35;;
16029;SDS011;34770;49.272;11.070;2023-05-10T01:12:20;7.63;;;6.68;;
16029;SDS011;34770;49.272;11.070;2023-05-10T01:14:45;9.30;;;7.57;;
16029;SDS011;34770;49.272;11.070;2023-05-10T01:17:12;10.00;;;6.85;;
16029;SDS011;34770;49.272;11.070;2023-05-10T01:19:38;9.07;;;7.35;;
16029;SDS011;34770;49.272;11.070;2023-05-10T01:27:45;8.98;;;8.07;;
16029;SDS011;34770;49.272;11.070;2023-05-10T01:33:03;9.75;;;7.95;;
16029;SDS011;34770;49.272;11.070;2023-05-10T01:35:51;8.95;;;8.05;;
16029;SDS011;34770;49.272;11.070;2023-05-10T01:38:19;8.98;;;8.07;;
16029;SDS011;34770;49.272;11.070;2023-05-10T01:41:39;9.40;;;8.38;;
16029;SDS011;34770;49.272;11.070;2023-05-10T01:47:10;7.95;;;7.15;;
16029;SDS011;34770;49.272;11.070;2023-05-10T01:49:41;8.55;;;7.70;;
16029;SDS011;34770;49.272;11.070;2023-05-10T01:52:22;9.40;;;7.70;;
16029;SDS011;34770;49.272;11.070;2023-05-10T01:54:56;8.93;;;8.00;;
16029;SDS011;34770;49.272;11.070;2023-05-10T01:57:27;8.80;;;7.32;;
16029;SDS011;34770;49.272;11.070;2023-05-10T01:59:58;8.05;;;7.25;;
16029;SDS011;34770;49.272;11.070;2023-05-10T02:02:26;8.45;;;7.40;;
16029;SDS011;34770;49.272;11.070;2023-05-10T02:04:53;6.43;;;5.82;;
16029;SDS011;34770;49.272;11.070;2023-05-10T02:07:20;8.13;;;7.32;;
16029;SDS011;34770;49.272;11.070;2023-05-10T02:09:50;7.15;;;6.45;;
16029;SDS011;34770;49.272;11.070;2023-05-10T02:12:16;11.77;;;5.75;;
16029;SDS011;34770;49.272;11.070;2023-05-10T02:14:43;8.00;;;7.20;;
16029;SDS011;34770;49.272;11.070;2023-05-10T02:17:10;7.93;;;7.13;;
16029;SDS011;34770;49.272;11.070;2023-05-10T02:19:37;8.23;;;7.43;;
16029;SDS011;34770;49.272;11.070;2023-05-10T02:22:06;10.57;;;7.93;;
16029;SDS011;34770;49.272;11.070;2023-05-10T02:24:33;7.85;;;7.10;;
16029;SDS011;34770;49.272;11.070;2023-05-10T02:27:01;10.88;;;7.25;;
16029;SDS011;34770;49.272;11.070;2023-05-10T02:29:28;8.30;;;6.97;;
16029;SDS011;34770;49.272;11.070;2023-05-10T02:31:56;7.85;;;7.13;;
16029;SDS011;34770;49.272;11.070;2023-05-10T02:34:24;9.27;;;8.05;;
16029;SDS011;34770;49.272;11.070;2023-05-10T02:36:51;10.55;;;7.22;;
16029;SDS011;34770;49.272;11.070;2023-05-10T02:39:22;9.43;;;7.70;;
16029;SDS011;34770;49.272;11.070;2023-05-10T02:41:49;8.20;;;6.82;;
16029;SDS011;34770;49.272;11.070;2023-05-10T02:44:19;8.00;;;6.57;;
16029;SDS011;34770;49.272;11.070;2023-05-10T02:46:47;8.55;;;7.65;;
16029;SDS011;34770;49.272;11.070;2023-05-10T02:49:13;7.50;;;6.80;;
16029;SDS011;34770;49.272;11.070;2023-05-10T02:51:44;7.68;;;6.82;;
16029;SDS011;34770;49.272;11.070;2023-05-10T02:54:18;8.48;;;6.20;;
16029;SDS011;34770;49.272;11.070;2023-05-10T02:56:52;8.80;;;6.40;;
16029;SDS011;34770;49.272;11.070;2023-05-10T02:59:21;6.93;;;6.22;;
16029;SDS011;34770;49.272;11.070;2023-05-10T03:01:47;6.38;;;5.50;;
16029;SDS011;34770;49.272;11.070;2023-05-10T03:04:12;6.20;;;4.30;;
16029;SDS011;34770;49.272;11.070;2023-05-10T03:06:38;6.10;;;5.10;;
16029;SDS011;34770;49.272;11.070;2023-05-10T03:09:04;6.65;;;5.50;;
16029;SDS011;34770;49.272;11.070;2023-05-10T03:17:22;6.95;;;4.25;;
16029;SDS011;34770;49.272;11.070;2023-05-10T03:22:26;4.13;;;2.70;;
16029;SDS011;34770;49.272;11.070;2023-05-10T03:25:00;3.03;;;2.20;;
16029;SDS011;34770;49.272;11.070;2023-05-10T03:27:29;2.83;;;2.42;;
16029;SDS011;34770;49.272;11.070;2023-05-10T03:29:55;2.90;;;2.55;;
16029;SDS011;34770;49.272;11.070;2023-05-10T03:32:21;2.20;;;2.00;;
16029;SDS011;34770;49.272;11.070;2023-05-10T03:34:48;4.32;;;1.88;;
16029;SDS011;34770;49.272;11.070;2023-05-10T03:37:13;2.00;;;1.80;;
16029;SDS011;34770;49.272;11.070;2023-05-10T03:39:39;2.83;;;2.20;;
16029;SDS011;34770;49.272;11.070;2023-05-10T03:42:04;1.80;;;1.70;;
16029;SDS011;34770;49.272;11.070;2023-05-10T03:44:30;1.60;;;1.50;;
16029;SDS011;34770;49.272;11.070;2023-05-10T03:46:56;2.20;;;2.00;;
16029;SDS011;34770;49.272;11.070;2023-05-10T03:49:22;1.60;;;1.50;;
16029;SDS011;34770;49.272;11.070;2023-05-10T03:51:47;1.30;;;1.20;;
16029;SDS011;34770;49.272;11.070;2023-05-10T03:54:13;1.40;;;1.30;;
16029;SDS011;34770;49.272;11.070;2023-05-10T03:56:38;1.67;;;1.30;;
16029;SDS011;34770;49.272;11.070;2023-05-10T03:59:04;1.10;;;1.10;;
16029;SDS011;34770;49.272;11.070;2023-05-10T04:01:32;1.65;;;1.55;;
16029;SDS011;34770;49.272;11.070;2023-05-10T04:03:58;1.05;;;1.00;;
16029;SDS011;34770;49.272;11.070;2023-05-10T04:06:24;1.30;;;1.20;;
16029;SDS011;34770;49.272;11.070;2023-05-10T04:08:49;1.35;;;1.10;;
16029;SDS011;34770;49.272;11.070;2023-05-10T04:11:15;1.20;;;1.10;;
16029;SDS011;34770;49.272;11.070;2023-05-10T04:13:40;1.55;;;1.45;;
16029;SDS011;34770;49.272;11.070;2023-05-10T04:16:06;1.17;;;1.08;;
16029;SDS011;34770;49.272;11.070;2023-05-10T04:18:32;0.90;;;0.90;;
16029;SDS011;34770;49.272;11.070;2023-05-10T04:20:57;1.40;;;1.33;;
16029;SDS011;34770;49.272;11.070;2023-05-10T04:23:23;0.90;;;0.90;;
16029;SDS011;34770;49.272;11.070;2023-05-10T04:25:48;1.27;;;1.20;;
16029;SDS011;34770;49.272;11.070;2023-05-10T04:28:14;0.95;;;0.90;;
16029;SDS011;34770;49.272;11.070;2023-05-10T04:30:39;1.00;;;0.90;;
16029;SDS011;34770;49.272;11.070;2023-05-10T04:33:05;1.08;;;1.00;;
16029;SDS011;34770;49.272;11.070;2023-05-10T04:35:31;0.93;;;0.93;;
16029;SDS011;34770;49.272;11.070;2023-05-10T04:37:56;1.02;;;0.90;;
16029;SDS011;34770;49.272;11.070;2023-05-10T04:40:22;1.33;;;1.23;;
16029;SDS011;34770;49.272;11.070;2023-05-10T04:42:47;1.50;;;1.40;;
16029;SDS011;34770;49.272;11.070;2023-05-10T04:45:13;1.38;;;1.27;;
16029;SDS011;34770;49.272;11.070;2023-05-10T04:47:41;1.02;;;1.02;;
16029;SDS011;34770;49.272;11.070;2023-05-10T04:50:07;1.10;;;1.10;;
16029;SDS011;34770;49.272;11.070;2023-05-10T04:52:33;1.35;;;1.25;;
16029;SDS011;34770;49.272;11.070;2023-05-10T04:54:58;1.10;;;1.08;;
16029;SDS011;34770;49.272;11.070;2023-05-10T04:57:24;1.00;;;0.90;;
16029;SDS011;34770;49.272;11.070;2023-05-10T04:59:49;0.80;;;0.80;;
16029;SDS011;34770;49.272;11.070;2023-05-10T05:02:15;1.02;;;1.00;;
16029;SDS011;34770;49.272;11.070;2023-05-10T05:04:40;1.13;;;1.13;;
16029;SDS011;34770;49.272;11.070;2023-05-10T05:07:06;1.23;;;0.98;;
16029;SDS011;34770;49.272;11.070;2023-05-10T05:09:31;1.70;;;1.20;;
16029;SDS011;34770;49.272;11.070;2023-05-10T05:11:59;3.75;;;1.30;;
16029;SDS011;34770;49.272;11.070;2023-05-10T05:14:25;1.33;;;1.33;;
16029;SDS011;34770;49.272;11.070;2023-05-10T05:16:51;1.10;;;1.10;;
16029;SDS011;34770;49.272;11.070;2023-05-10T05:19:17;1.20;;;1.20;;
16029;SDS011;34770;49.272;11.070;2023-05-10T05:21:42;1.45;;;1.35;;
16029;SDS011;34770;49.272;11.070;2023-05-10T05:24:08;1.17;;;1.08;;
16029;SDS011;34770;49.272;11.070;2023-05-10T05:26:35;1.58;;;1.48;;
16029;SDS011;34770;49.272;11.070;2023-05-10T05:29:01;1.50;;;1.40;;
16029;SDS011;34770;49.272;11.070;2023-05-10T05:31:27;1.52;;;1.42;;
16029;SDS011;34770;49.272;11.070;2023-05-10T05:33:52;1.17;;;1.17;;
16029;SDS011;34770;49.272;11.070;2023-05-10T05:36:18;1.33;;;1.23;;
16029;SDS011;34770;49.272;11.070;2023-05-10T05:38:43;1.00;;;1.00;;
16029;SDS011;34770;49.272;11.070;2023-05-10T05:41:08;1.50;;;1.40;;
16029;SDS011;34770;49.272;11.070;2023-05-10T05:43:34;2.20;;;1.20;;
16029;SDS011;34770;49.272;11.070;2023-05-10T05:45:59;1.50;;;1.40;;
16029;SDS011;34770;49.272;11.070;2023-05-10T05:48:25;1.17;;;1.17;;
16029;SDS011;34770;49.272;11.070;2023-05-10T05:50:53;0.95;;;0.95;;
16029;SDS011;34770;49.272;11.070;2023-05-10T05:53:20;1.40;;;1.30;;
16029;SDS011;34770;49.272;11.070;2023-05-10T05:55:53;1.20;;;1.20;;
16029;SDS011;34770;49.272;11.070;2023-05-10T05:58:20;1.35;;;1.25;;
16029;SDS011;34770;49.272;11.070;2023-05-10T06:00:46;1.50;;;1.40;;
16029;SDS011;34770;49.272;11.070;2023-05-10T06:03:11;1.67;;;1.30;;
16029;SDS011;34770;49.272;11.070;2023-05-10T06:05:37;1.67;;;1.30;;
16029;SDS011;34770;49.272;11.070;2023-05-10T06:08:02;1.48;;;1.38;;
16029;SDS011;34770;49.272;11.070;2023-05-10T06:10:28;1.48;;;1.38;;
16029;SDS011;34770;49.272;11.070;2023-05-10T06:12:54;1.38;;;1.27;;
16029;SDS011;34770;49.272;11.070;2023-05-10T06:15:19;1.50;;;1.40;;
16029;SDS011;34770;49.272;11.070;2023-05-10T06:17:45;1.40;;;1.30;;
16029;SDS011;34770;49.272;11.070;2023-05-10T06:20:12;1.77;;;1.48;;
16029;SDS011;34770;49.272;11.070;2023-05-10T06:22:38;1.52;;;1.42;;
16029;SDS011;34770;49.272;11.070;2023-05-10T06:25:03;1.10;;;1.05;;
16029;SDS011;34770;49.272;11.070;2023-05-10T06:27:29;1.75;;;1.65;;
16029;SDS011;34770;49.272;11.070;2023-05-10T06:29:54;1.50;;;1.40;;
16029;SDS011;34770;49.272;11.070;2023-05-10T06:32:20;1.55;;;1.45;;
16029;SDS011;34770;49.272;11.070;2023-05-10T06:34:45;1.60;;;1.50;;
16029;SDS011;34770;49.272;11.070;2023-05-10T06:37:11;1.60;;;1.50;;
16029;SDS011;34770;49.272;11.070;2023-05-10T06:39:36;1.60;;;1.50;;
16029;SDS011;34770;49.272;11.070;2023-05-10T06:42:02;1.90;;;1.80;;
16029;SDS011;34770;49.272;11.070;2023-05-10T06:44:29;1.90;;;1.80;;
16029;SDS011;34770;49.272;11.070;2023-05-10T06:46:55;2.03;;;1.60;;
16029;SDS011;34770;49.272;11.070;2023-05-10T06:49:21;1.80;;;1.70;;
16029;SDS011;34770;49.272;11.070;2023-05-10T06:51:47;1.90;;;1.80;;
16029;SDS011;34770;49.272;11.070;2023-05-10T06:54:13;2.08;;;1.90;;
16029;SDS011;34770;49.272;11.070;2023-05-10T06:56:39;3.55;;;2.20;;
16029;SDS011;34770;49.272;11.070;2023-05-10T06:59:04;1.83;;;1.70;;
16029;SDS011;34770;49.272;11.070;2023-05-10T07:01:30;1.98;;;1.88;;
16029;SDS011;34770;49.272;11.070;2023-05-10T07:03:55;2.22;;;2.03;;
16029;SDS011;34770;49.272;11.070;2023-05-10T07:06:21;3.05;;;1.67;;
16029;SDS011;34770;49.272;11.070;2023-05-10T07:08:47;1.58;;;1.48;;
16029;SDS011;34770;49.272;11.070;2023-05-10T07:11:12;1.65;;;1.55;;
16029;SDS011;34770;49.272;11.070;2023-05-10T07:13:38;1.75;;;1.65;;
16029;SDS011;34770;49.272;11.070;2023-05-10T07:16:06;2.80;;;1.80;;
16029;SDS011;34770;49.272;11.070;2023-05-10T07:18:32;1.70;;;1.60;;
16029;SDS011;34770;49.272;11.070;2023-05-10T07:20:58;1.70;;;1.60;;
16029;SDS011;34770;49.272;11.070;2023-05-10T07:23:24;1.30;;;1.23;;
16029;SDS011;34770;49.272;11.070;2023-05-10T07:25:50;1.55;;;1.45;;
16029;SDS011;34770;49.272;11.070;2023-05-10T07:28:19;1.65;;;1.55;;
16029;SDS011;34770;49.272;11.070;2023-05-10T07:30:45;1.75;;;1.42;;
16029;SDS011;34770;49.272;11.070;2023-05-10T07:33:11;1.63;;;1.52;;
16029;SDS011;34770;49.272;11.070;2023-05-10T07:35:38;1.75;;;1.42;;
16029;SDS011;34770;49.272;11.070;2023-05-10T07:38:04;1.35;;;1.23;;
16029;SDS011;34770;49.272;11.070;2023-05-10T07:40:29;4.28;;;2.13;;
16029;SDS011;34770;49.272;11.070;2023-05-10T07:42:55;1.45;;;1.35;;
16029;SDS011;34770;49.272;11.070;2023-05-10T07:45:21;7.57;;;2.50;;
16029;SDS011;34770;49.272;11.070;2023-05-10T07:47:47;1.85;;;1.70;;
16029;SDS011;34770;49.272;11.070;2023-05-10T07:50:12;2.35;;;2.10;;
16029;SDS011;34770;49.272;11.070;2023-05-10T07:52:39;2.15;;;2.00;;
16029;SDS011;34770;49.272;11.070;2023-05-10T07:55:04;2.42;;;2.22;;
16029;SDS011;34770;49.272;11.070;2023-05-10T07:57:31;1.85;;;1.75;;
16029;SDS011;34770;49.272;11.070;2023-05-10T07:59:56;1.92;;;1.45;;
16029;SDS011;34770;49.272;11.070;2023-05-10T08:02:21;4.32;;;1.58;;
16029;SDS011;34770;49.272;11.070;2023-05-10T08:04:47;2.13;;;2.03;;
16029;SDS011;34770;49.272;11.070;2023-05-10T08:07:12;2.10;;;1.90;;
16029;SDS011;34770;49.272;11.070;2023-05-10T08:09:38;2.38;;;2.17;;
16029;SDS011;34770;49.272;11.070;2023-05-10T08:12:03;2.35;;;2.13;;
16029;SDS011;34770;49.272;11.070;2023-05-10T08:14:29;4.13;;;2.10;;
16029;SDS011;34770;49.272;11.070;2023-05-10T08:16:55;2.20;;;1.88;;
16029;SDS011;34770;49.272;11.070;2023-05-10T08:19:21;1.90;;;1.80;;
16029;SDS011;34770;49.272;11.070;2023-05-10T08:21:47;3.15;;;2.55;;
16029;SDS011;34770;49.272;11.070;2023-05-10T08:24:13;2.70;;;2.50;;
16029;SDS011;34770;49.272;11.070;2023-05-10T08:26:38;1.90;;;1.77;;
16029;SDS011;34770;49.272;11.070;2023-05-10T08:29:04;1.77;;;1.67;;
16029;SDS011;34770;49.272;11.070;2023-05-10T08:31:29;1.77;;;1.67;;
16029;SDS011;34770;49.272;11.070;2023-05-10T08:33:55;2.95;;;1.85;;
16029;SDS011;34770;49.272;11.070;2023-05-10T08:36:20;2.10;;;2.00;;
16029;SDS011;34770;49.272;11.070;2023-05-10T08:38:50;1.70;;;1.60;;
16029;SDS011;34770;49.272;11.070;2023-05-10T08:41:17;2.25;;;1.73;;
16029;SDS011;34770;49.272;11.070;2023-05-10T08:43:45;4.63;;;1.80;;
16029;SDS011;34770;49.272;11.070;2023-05-10T08:46:12;2.92;;;1.63;;
16029;SDS011;34770;49.272;11.070;2023-05-10T08:48:42;2.05;;;1.85;;
16029;SDS011;34770;49.272;11.070;2023-05-10T08:51:09;1.90;;;1.80;;
16029;SDS011;34770;49.272;11.070;2023-05-10T08:53:38;2.58;;;1.98;;
16029;SDS011;34770;49.272;11.070;2023-05-10T08:56:04;2.42;;;1.60;;
16029;SDS011;34770;49.272;11.070;2023-05-10T08:58:30;1.60;;;1.50;;
16029;SDS011;34770;49.272;11.070;2023-05-10T09:00:56;2.03;;;1.83;;
16029;SDS011;34770;49.272;11.070;2023-05-10T09:03:22;1.85;;;1.73;;
16029;SDS011;34770;49.272;11.070;2023-05-10T09:05:48;3.00;;;1.50;;
16029;SDS011;34770;49.272;11.070;2023-05-10T09:08:14;1.35;;;1.25;;
16029;SDS011;34770;49.272;11.070;2023-05-10T09:10:41;2.03;;;1.85;;
16029;SDS011;34770;49.272;11.070;2023-05-10T09:13:08;2.17;;;1.50;;
16029;SDS011;34770;49.272;11.070;2023-05-10T09:15:35;2.15;;;1.85;;
16029;SDS011;34770;49.272;11.070;2023-05-10T09:18:00;2.38;;;1.35;;
16029;SDS011;34770;49.272;11.070;2023-05-10T09:20:27;2.65;;;1.50;;
16029;SDS011;34770;49.272;11.070;2023-05-10T09:22:53;3.13;;;1.70;;
16029;SDS011;34770;49.272;11.070;2023-05-10T09:25:18;2.92;;;1.48;;
16029;SDS011;34770;49.272;11.070;2023-05-10T09:27:45;1.65;;;1.55;;
16029;SDS011;34770;49.272;11.070;2023-05-10T09:32:51;1.67;;;1.45;;
16029;SDS011;34770;49.272;11.070;2023-05-10T09:35:18;1.30;;;1.20;;
16029;SDS011;34770;49.272;11.070;2023-05-10T09:37:46;1.52;;;1.10;;
16029;SDS011;34770;49.272;11.070;2023-05-10T09:40:15;3.38;;;1.65;;
16029;SDS011;34770;49.272;11.070;2023-05-10T09:43:05;1.60;;;1.50;;
16029;SDS011;34770;49.272;11.070;2023-05-10T09:45:33;1.30;;;1.20;;
16029;SDS011;34770;49.272;11.070;2023-05-10T09:48:00;1.85;;;1.20;;
16029;SDS011;34770;49.272;11.070;2023-05-10T09:50:27;4.25;;;1.65;;
16029;SDS011;34770;49.272;11.070;2023-05-10T09:52:57;1.40;;;1.23;;
16029;SDS011;34770;49.272;11.070;2023-05-10T09:55:26;7.18;;;3.28;;
16029;SDS011;34770;49.272;11.070;2023-05-10T09:58:14;2.75;;;1.30;;
16029;SDS011;34770;49.272;11.070;2023-05-10T10:00:40;1.20;;;1.10;;
16029;SDS011;34770;49.272;11.070;2023-05-10T10:03:19;1.40;;;1.30;;
16029;SDS011;34770;49.272;11.070;2023-05-10T10:05:46;1.60;;;1.50;;
16029;SDS011;34770;49.272;11.070;2023-05-10T10:08:12;1.95;;;1.42;;
16029;SDS011;34770;49.272;11.070;2023-05-10T10:10:39;2.17;;;1.33;;
16029;SDS011;34770;49.272;11.070;2023-05-10T10:13:05;2.00;;;1.90;;
16029;SDS011;34770;49.272;11.070;2023-05-10T10:15:32;1.38;;;1.17;;
16029;SDS011;34770;49.272;11.070;2023-05-10T10:17:58;4.93;;;1.40;;
16029;SDS011;34770;49.272;11.070;2023-05-10T10:20:24;5.40;;;2.20;;
16029;SDS011;34770;49.272;11.070;2023-05-10T10:22:51;2.28;;;1.50;;
16029;SDS011;34770;49.272;11.070;2023-05-10T10:25:17;2.33;;;2.08;;
16029;SDS011;34770;49.272;11.070;2023-05-10T10:35:54;1.30;;;1.20;;
16029;SDS011;34770;49.272;11.070;2023-05-10T10:38:23;1.63;;;1.50;;
16029;SDS011;34770;49.272;11.070;2023-05-10T10:40:48;1.80;;;1.70;;
16029;SDS011;34770;49.272;11.070;2023-05-10T10:43:28;1.92;;;1.58;;
16029;SDS011;34770;49.272;11.070;2023-05-10T10:48:49;1.65;;;1.55;;
16029;SDS011;34770;49.272;11.070;2023-05-10T10:51:33;3.03;;;1.88;;
16029;SDS011;34770;49.272;11.070;2023-05-10T10:54:09;5.00;;;2.25;;
16029;SDS011;34770;49.272;11.070;2023-05-10T10:56:35;3.95;;;2.47;;
16029;SDS011;34770;49.272;11.070;2023-05-10T10:59:00;2.08;;;1.88;;
16029;SDS011;34770;49.272;11.070;2023-05-10T11:01:26;4.82;;;1.70;;
16029;SDS011;34770;49.272;11.070;2023-05-10T11:06:33;3.47;;;2.15;;
16029;SDS011;34770;49.272;11.070;2023-05-10T11:09:10;1.65;;;1.55;;
16029;SDS011;34770;49.272;11.070;2023-05-10T11:11:53;3.55;;;1.77;;
16029;SDS011;34770;49.272;11.070;2023-05-10T11:14:23;2.85;;;1.90;;
16029;SDS011;34770;49.272;11.070;2023-05-10T11:16:49;3.75;;;2.40;;
16029;SDS011;34770;49.272;11.070;2023-05-10T11:19:15;2.22;;;1.90;;
16029;SDS011;34770;49.272;11.070;2023-05-10T11:21:49;1.88;;;1.77;;
16029;SDS011;34770;49.272;11.070;2023-05-10T11:24:16;2.40;;;2.00;;
16029;SDS011;34770;49.272;11.070;2023-05-10T11:26:43;2.33;;;1.77;;
16029;SDS011;34770;49.272;11.070;2023-05-10T11:29:09;1.90;;;1.80;;
16029;SDS011;34770;49.272;11.070;2023-05-10T11:31:35;2.20;;;1.48;;
16029;SDS011;34770;49.272;11.070;2023-05-10T11:34:06;2.08;;;1.83;;
16029;SDS011;34770;49.272;11.070;2023-05-10T11:36:33;1.50;;;1.40;;
16029;SDS011;34770;49.272;11.070;2023-05-10T11:39:01;3.03;;;1.50;;
16029;SDS011;34770;49.272;11.070;2023-05-10T11:41:28;1.30;;;1.20;;
16029;SDS011;34770;49.272;11.070;2023-05-10T11:43:55;2.67;;;1.80;;
16029;SDS011;34770;49.272;11.070;2023-05-10T11:46:23;2.40;;;1.58;;
16029;SDS011;34770;49.272;11.070;2023-05-10T11:48:52;1.73;;;1.42;;
16029;SDS011;34770;49.272;11.070;2023-05-10T11:51:19;1.50;;;1.30;;
16029;SDS011;34770;49.272;11.070;2023-05-10T11:53:46;1.60;;;1.40;;
16029;SDS011;34770;49.272;11.070;2023-05-10T11:56:11;1.55;;;1.45;;
16029;SDS011;34770;49.272;11.070;2023-05-10T11:58:37;1.52;;;1.42;;
16029;SDS011;34770;49.272;11.070;2023-05-10T12:01:05;1.60;;;1.50;;
16029;SDS011;34770;49.272;11.070;2023-05-10T12:03:31;1.48;;;1.38;;
16029;SDS011;34770;49.272;11.070;2023-05-10T12:05:58;3.03;;;1.60;;
16029;SDS011;34770;49.272;11.070;2023-05-10T12:08:25;1.60;;;1.50;;
16029;SDS011;34770;49.272;11.070;2023-05-10T12:10:51;1.40;;;1.30;;
16029;SDS011;34770;49.272;11.070;2023-05-10T12:13:18;1.58;;;1.48;;
16029;SDS011;34770;49.272;11.070;2023-05-10T12:15:45;2.15;;;1.70;;
16029;SDS011;34770;49.272;11.070;2023-05-10T12:18:11;2.67;;;1.73;;
16029;SDS011;34770;49.272;11.070;2023-05-10T12:20:37;1.80;;;1.70;;
16029;SDS011;34770;49.272;11.070;2023-05-10T12:23:04;2.47;;;1.95;;
16029;SDS011;34770;49.272;11.070;2023-05-10T12:25:31;2.25;;;2.00;;
16029;SDS011;34770;49.272;11.070;2023-05-10T12:27:58;2.38;;;2.17;;
16029;SDS011;34770;49.272;11.070;2023-05-10T12:30:28;2.60;;;2.40;;
16029;SDS011;34770;49.272;11.070;2023-05-10T12:33:14;2.30;;;2.10;;
16029;SDS011;34770;49.272;11.070;2023-05-10T12:35:45;3.05;;;1.95;;
16029;SDS011;34770;49.272;11.070;2023-05-10T12:38:37;2.65;;;1.60;;
16029;SDS011;34770;49.272;11.070;2023-05-10T12:41:08;1.40;;;1.30;;
16029;SDS011;34770;49.272;11.070;2023-05-10T12:43:35;2.15;;;1.23;;
16029;SDS011;34770;49.272;11.070;2023-05-10T12:46:19;1.33;;;1.30;;
16029;SDS011;34770;49.272;11.070;2023-05-10T12:48:44;0.98;;;0.98;;
16029;SDS011;34770;49.272;11.070;2023-05-10T12:51:17;1.00;;;1.00;;
16029;SDS011;34770;49.272;11.070;2023-05-10T12:53:44;5.40;;;1.42;;
16029;SDS011;34770;49.272;11.070;2023-05-10T12:56:10;1.08;;;0.98;;
16029;SDS011;34770;49.272;11.070;2023-05-10T12:58:36;1.00;;;1.00;;
16029;SDS011;34770;49.272;11.070;2023-05-10T13:01:04;3.00;;;1.67;;
16029;SDS011;34770;49.272;11.070;2023-05-10T13:03:30;0.98;;;0.93;;
16029;SDS011;34770;49.272;11.070;2023-05-10T13:05:55;1.15;;;1.10;;
16029;SDS011;34770;49.272;11.070;2023-05-10T13:08:21;1.40;;;1.30;;
16029;SDS011;34770;49.272;11.070;2023-05-10T13:10:46;2.55;;;1.83;;
16029;SDS011;34770;49.272;11.070;2023-05-10T13:13:12;1.30;;;1.20;;
16029;SDS011;34770;49.272;11.070;2023-05-10T13:15:37;1.65;;;1.27;;
16029;SDS011;34770;49.272;11.070;2023-05-10T13:18:03;2.17;;;1.10;;
16029;SDS011;34770;49.272;11.070;2023-05-10T13:20:28;2.45;;;1.40;;
16029;SDS011;34770;49.272;11.070;2023-05-10T13:22:54;1.73;;;1.30;;
16029;SDS011;34770;49.272;11.070;2023-05-10T13:25:19;1.60;;;1.50;;
16029;SDS011;34770;49.272;11.070;2023-05-10T13:27:45;1.40;;;1.30;;
16029;SDS011;34770;49.272;11.070;2023-05-10T13:30:11;1.60;;;1.25;;
16029;SDS011;34770;49.272;11.070;2023-05-10T13:32:36;2.20;;;1.20;;
16029;SDS011;34770;49.272;11.070;2023-05-10T13:35:02;1.90;;;1.38;;
16029;SDS011;34770;49.272;11.070;2023-05-10T13:37:29;2.78;;;1.75;;
16029;SDS011;34770;49.272;11.070;2023-05-10T13:39:55;1.73;;;1.55;;
16029;SDS011;34770;49.272;11.070;2023-05-10T13:42:21;1.88;;;1.77;;
16029;SDS011;34770;49.272;11.070;2023-05-10T13:44:48;1.63;;;1.52;;
16029;SDS011;34770;49.272;11.070;2023-05-10T13:47:14;2.90;;;2.20;;
16029;SDS011;34770;49.272;11.070;2023-05-10T13:49:39;2.08;;;1.88;;
16029;SDS011;34770;49.272;11.070;2023-05-10T13:52:05;1.85;;;1.60;;
16029;SDS011;34770;49.272;11.070;2023-05-10T13:54:35;1.90;;;1.80;;
16029;SDS011;34770;49.272;11.070;2023-05-10T13:57:03;1.60;;;1.50;;
16029;SDS011;34770;49.272;11.070;2023-05-10T13:59:29;2.65;;;1.63;;
16029;SDS011;34770;49.272;11.070;2023-05-10T14:01:58;2.15;;;1.52;;
16029;SDS011;34770;49.272;11.070;2023-05-10T14:04:24;1.38;;;1.25;;
16029;SDS011;34770;49.272;11.070;2023-05-10T14:06:50;1.83;;;1.73;;
16029;SDS011;34770;49.272;11.070;2023-05-10T14:09:17;1.48;;;1.38;;
16029;SDS011;34770;49.272;11.070;2023-05-10T14:11:43;1.50;;;1.10;;
16029;SDS011;34770;49.272;11.070;2023-05-10T14:14:09;2.78;;;1.00;;
16029;SDS011;34770;49.272;11.070;2023-05-10T14:16:35;1.63;;;1.10;;
16029;SDS011;34770;49.272;11.070;2023-05-10T14:19:01;1.27;;;1.17;;
16029;SDS011;34770;49.272;11.070;2023-05-10T14:21:27;1.38;;;1.27;;
16029;SDS011;34770;49.272;11.070;2023-05-10T14:23:54;1.15;;;1.00;;
16029;SDS011;34770;49.272;11.070;2023-05-10T14:26:20;1.08;;;1.08;;
16029;SDS011;34770;49.272;11.070;2023-05-10T14:28:46;1.10;;;1.10;;
16029;SDS011;34770;49.272;11.070;2023-05-10T14:31:12;1.20;;;1.10;;
16029;SDS011;34770;49.272;11.070;2023-05-10T14:33:37;1.48;;;1.35;;
16029;SDS011;34770;49.272;11.070;2023-05-10T14:36:03;2.78;;;1.30;;
16029;SDS011;34770;49.272;11.070;2023-05-10T14:38:29;1.45;;;1.35;;
16029;SDS011;34770;49.272;11.070;2023-05-10T14:40:54;1.50;;;1.40;;
16029;SDS011;34770;49.272;11.070;2023-05-10T14:43:20;1.55;;;1.40;;
16029;SDS011;34770;49.272;11.070;2023-05-10T14:45:45;1.95;;;1.70;;
16029;SDS011;34770;49.272;11.070;2023-05-10T14:48:12;1.50;;;1.40;;
16029;SDS011;34770;49.272;11.070;2023-05-10T14:50:40;3.20;;;1.70;;
16029;SDS011;34770;49.272;11.070;2023-05-10T14:53:06;2.28;;;1.50;;
16029;SDS011;34770;49.272;11.070;2023-05-10T14:55:31;2.45;;;1.40;;
16029;SDS011;34770;49.272;11.070;2023-05-10T14:57:57;4.00;;;1.90;;
16029;SDS011;34770;49.272;11.070;2023-05-10T15:00:23;1.90;;;1.80;;
16029;SDS011;34770;49.272;11.070;2023-05-10T15:02:49;1.85;;;1.75;;
16029;SDS011;34770;49.272;11.070;2023-05-10T15:05:14;2.00;;;1.83;;
16029;SDS011;34770;49.272;11.070;2023-05-10T15:07:40;1.58;;;1.48;;
16029;SDS011;34770;49.272;11.070;2023-05-10T15:10:05;1.35;;;1.25;;